sensor_id;sensor_type;location;lat;lon;timestamp;P1;durP1;ratioP1;P2;durP2;ratioP2
18748;SDS011;9503;53.560;10.246;2023-11-18T00:00:54;10.57;;;6.00;;
18748;SDS011;9503;53.560;10.246;2023-11-18T00:03:21;10.73;;;5.17;;
18748;SDS011;9503;53.560;10.246;2023-11-18T00:05:47;9.80;;;5.90;;
18748;SDS011;9503;53.560;10.246;2023-11-18T00:08:14;9.63;;;5.97;;
18748;SDS011;9503;53.560;10.246;2023-11-18T00:10:40;11.93;;;6.43;;
18748;SDS011;9503;53.560;10.246;2023-11-18T00:13:07;9.10;;;5.73;;
18748;SDS011;9503;53.560;10.246;2023-11-18T00:15:35;12.10;;;5.93;;
18748;SDS011;9503;53.560;10.246;2023-11-18T00:18:02;11.23;;;5.53;;
18748;SDS011;9503;53.560;10.246;2023-11-18T00:20:29;10.40;;;6.60;;
18748;SDS011;9503;53.560;10.246;2023-11-18T00:22:56;12.17;;;5.80;;
18748;SDS011;9503;53.560;10.246;2023-11-18T00:25:22;10.13;;;6.00;;
18748;SDS011;9503;53.560;10.246;2023-11-18T00:27:49;11.03;;;5.47;;
18748;SDS011;9503;53.560;10.246;2023-11-18T00:30:15;9.57;;;5.50;;
18748;SDS011;9503;53.560;10.246;2023-11-18T00:32:43;9.10;;;5.77;;
18748;SDS011;9503;53.560;10.246;2023-11-18T00:35:10;11.00;;;6.23;;
18748;SDS011;9503;53.560;10.246;2023-11-18T00:37:37;10.07;;;5.70;;
18748;SDS011;9503;53.560;10.246;2023-11-18T00:40:04;11.23;;;5.53;;
18748;SDS011;9503;53.560;10.246;2023-11-18T00:42:32;10.00;;;6.23;;
18748;SDS011;9503;53.560;10.246;2023-11-18T00:44:58;9.73;;;5.90;;
18748;SDS011;9503;53.560;10.246;2023-11-18T00:47:25;9.87;;;6.13;;
18748;SDS011;9503;53.560;10.246;2023-11-18T00:49:53;10.00;;;5.77;;
18748;SDS011;9503;53.560;10.246;2023-11-18T00:52:20;9.80;;;5.83;;
18748;SDS011;9503;53.560;10.246;2023-11-18T00:54:46;9.40;;;5.50;;
18748;SDS011;9503;53.560;10.246;2023-11-18T00:57:13;11.53;;;5.93;;
18748;SDS011;9503;53.560;10.246;2023-11-18T00:59:41;9.13;;;5.53;;
18748;SDS011;9503;53.560;10.246;2023-11-18T01:02:08;10.53;;;6.13;;
18748;SDS011;9503;53.560;10.246;2023-11-18T01:04:34;10.67;;;6.50;;
18748;SDS011;9503;53.560;10.246;2023-11-18T01:07:02;9.47;;;5.70;;
18748;SDS011;9503;53.560;10.246;2023-11-18T01:09:29;9.50;;;5.90;;
18748;SDS011;9503;53.560;10.246;2023-11-18T01:12:01;9.77;;;5.10;;
18748;SDS011;9503;53.560;10.246;2023-11-18T01:14:29;9.33;;;5.13;;
18748;SDS011;9503;53.560;10.246;2023-11-18T01:16:55;8.77;;;5.37;;
18748;SDS011;9503;53.560;10.246;2023-11-18T01:19:22;11.20;;;5.93;;
18748;SDS011;9503;53.560;10.246;2023-11-18T01:21:49;10.77;;;6.13;;
18748;SDS011;9503;53.560;10.246;2023-11-18T01:24:19;7.93;;;5.13;;
18748;SDS011;9503;53.560;10.246;2023-11-18T01:26:46;11.90;;;6.37;;
18748;SDS011;9503;53.560;10.246;2023-11-18T01:29:13;10.13;;;5.63;;
18748;SDS011;9503;53.560;10.246;2023-11-18T01:31:40;8.90;;;5.63;;
18748;SDS011;9503;53.560;10.246;2023-11-18T01:34:07;11.03;;;5.57;;
18748;SDS011;9503;53.560;10.246;2023-11-18T01:36:33;9.07;;;5.33;;
18748;SDS011;9503;53.560;10.246;2023-11-18T01:39:00;8.07;;;5.43;;
18748;SDS011;9503;53.560;10.246;2023-11-18T01:41:29;11.17;;;6.03;;
18748;SDS011;9503;53.560;10.246;2023-11-18T01:43:57;11.27;;;5.87;;
18748;SDS011;9503;53.560;10.246;2023-11-18T01:46:24;11.03;;;6.20;;
18748;SDS011;9503;53.560;10.246;2023-11-18T01:48:51;10.67;;;5.67;;
18748;SDS011;9503;53.560;10.246;2023-11-18T01:51:18;9.20;;;5.80;;
18748;SDS011;9503;53.560;10.246;2023-11-18T01:53:45;11.37;;;5.50;;
18748;SDS011;9503;53.560;10.246;2023-11-18T01:56:15;11.73;;;5.67;;
18748;SDS011;9503;53.560;10.246;2023-11-18T01:58:43;11.13;;;6.37;;
18748;SDS011;9503;53.560;10.246;2023-11-18T02:01:11;11.50;;;6.17;;
18748;SDS011;9503;53.560;10.246;2023-11-18T02:03:41;10.00;;;6.00;;
18748;SDS011;9503;53.560;10.246;2023-11-18T02:06:08;9.50;;;5.70;;
18748;SDS011;9503;53.560;10.246;2023-11-18T02:08:35;9.67;;;5.53;;
18748;SDS011;9503;53.560;10.246;2023-11-18T02:11:05;12.80;;;5.67;;
18748;SDS011;9503;53.560;10.246;2023-11-18T02:13:40;12.63;;;6.77;;
18748;SDS011;9503;53.560;10.246;2023-11-18T02:16:12;12.37;;;6.50;;
18748;SDS011;9503;53.560;10.246;2023-11-18T02:18:40;10.90;;;6.07;;
18748;SDS011;9503;53.560;10.246;2023-11-18T02:21:09;13.43;;;6.93;;
18748;SDS011;9503;53.560;10.246;2023-11-18T02:23:39;12.70;;;6.33;;
18748;SDS011;9503;53.560;10.246;2023-11-18T02:26:08;14.53;;;7.10;;
18748;SDS011;9503;53.560;10.246;2023-11-18T02:28:35;13.07;;;6.00;;
18748;SDS011;9503;53.560;10.246;2023-11-18T02:31:03;13.23;;;6.93;;
18748;SDS011;9503;53.560;10.246;2023-11-18T02:33:35;12.53;;;6.47;;
18748;SDS011;9503;53.560;10.246;2023-11-18T02:36:09;13.10;;;7.17;;
18748;SDS011;9503;53.560;10.246;2023-11-18T02:38:47;13.43;;;6.73;;
18748;SDS011;9503;53.560;10.246;2023-11-18T02:41:18;14.00;;;7.37;;
18748;SDS011;9503;53.560;10.246;2023-11-18T02:43:46;14.10;;;7.50;;
18748;SDS011;9503;53.560;10.246;2023-11-18T02:46:13;13.37;;;6.83;;
18748;SDS011;9503;53.560;10.246;2023-11-18T02:48:41;15.43;;;6.80;;
18748;SDS011;9503;53.560;10.246;2023-11-18T02:51:08;14.40;;;7.37;;
18748;SDS011;9503;53.560;10.246;2023-11-18T02:53:37;12.43;;;7.23;;
18748;SDS011;9503;53.560;10.246;2023-11-18T02:56:06;13.60;;;7.23;;
18748;SDS011;9503;53.560;10.246;2023-11-18T02:58:35;15.60;;;7.33;;
18748;SDS011;9503;53.560;10.246;2023-11-18T03:01:02;15.90;;;8.03;;
18748;SDS011;9503;53.560;10.246;2023-11-18T03:03:29;14.80;;;7.87;;
18748;SDS011;9503;53.560;10.246;2023-11-18T03:05:56;11.93;;;7.30;;
18748;SDS011;9503;53.560;10.246;2023-11-18T03:08:25;13.67;;;7.67;;
18748;SDS011;9503;53.560;10.246;2023-11-18T03:10:53;14.03;;;7.00;;
18748;SDS011;9503;53.560;10.246;2023-11-18T03:13:20;13.20;;;7.67;;
18748;SDS011;9503;53.560;10.246;2023-11-18T03:15:49;14.87;;;7.30;;
18748;SDS011;9503;53.560;10.246;2023-11-18T03:18:17;21.27;;;7.77;;
18748;SDS011;9503;53.560;10.246;2023-11-18T03:20:43;16.17;;;7.60;;
18748;SDS011;9503;53.560;10.246;2023-11-18T03:23:10;14.70;;;8.13;;
18748;SDS011;9503;53.560;10.246;2023-11-18T03:25:37;13.80;;;7.70;;
18748;SDS011;9503;53.560;10.246;2023-11-18T03:28:04;16.37;;;7.73;;
18748;SDS011;9503;53.560;10.246;2023-11-18T03:30:32;17.83;;;8.30;;
18748;SDS011;9503;53.560;10.246;2023-11-18T03:33:01;15.50;;;8.10;;
18748;SDS011;9503;53.560;10.246;2023-11-18T03:35:28;15.30;;;8.60;;
18748;SDS011;9503;53.560;10.246;2023-11-18T03:37:55;16.50;;;8.20;;
18748;SDS011;9503;53.560;10.246;2023-11-18T03:40:22;16.20;;;8.90;;
18748;SDS011;9503;53.560;10.246;2023-11-18T03:42:48;13.07;;;8.13;;
18748;SDS011;9503;53.560;10.246;2023-11-18T03:45:15;14.80;;;8.17;;
18748;SDS011;9503;53.560;10.246;2023-11-18T03:47:43;19.77;;;8.33;;
18748;SDS011;9503;53.560;10.246;2023-11-18T03:50:11;14.30;;;7.97;;
18748;SDS011;9503;53.560;10.246;2023-11-18T03:52:38;15.13;;;8.20;;
18748;SDS011;9503;53.560;10.246;2023-11-18T03:55:05;15.17;;;8.43;;
18748;SDS011;9503;53.560;10.246;2023-11-18T03:57:33;15.40;;;8.20;;
18748;SDS011;9503;53.560;10.246;2023-11-18T04:00:00;13.53;;;7.83;;
18748;SDS011;9503;53.560;10.246;2023-11-18T04:02:28;12.57;;;8.07;;
18748;SDS011;9503;53.560;10.246;2023-11-18T04:04:54;15.13;;;7.20;;
18748;SDS011;9503;53.560;10.246;2023-11-18T04:07:22;15.03;;;7.63;;
18748;SDS011;9503;53.560;10.246;2023-11-18T04:09:49;16.37;;;7.93;;
18748;SDS011;9503;53.560;10.246;2023-11-18T04:12:15;15.90;;;8.40;;
18748;SDS011;9503;53.560;10.246;2023-11-18T04:14:42;15.77;;;7.33;;
18748;SDS011;9503;53.560;10.246;2023-11-18T04:17:08;14.00;;;7.10;;
18748;SDS011;9503;53.560;10.246;2023-11-18T04:19:35;12.80;;;6.83;;
18748;SDS011;9503;53.560;10.246;2023-11-18T04:22:02;13.27;;;6.83;;
18748;SDS011;9503;53.560;10.246;2023-11-18T04:24:31;11.07;;;6.33;;
18748;SDS011;9503;53.560;10.246;2023-11-18T04:26:57;12.20;;;6.50;;
18748;SDS011;9503;53.560;10.246;2023-11-18T04:29:24;12.60;;;6.73;;
18748;SDS011;9503;53.560;10.246;2023-11-18T04:31:51;11.33;;;6.43;;
18748;SDS011;9503;53.560;10.246;2023-11-18T04:34:18;12.07;;;7.47;;
18748;SDS011;9503;53.560;10.246;2023-11-18T04:36:45;12.20;;;6.67;;
18748;SDS011;9503;53.560;10.246;2023-11-18T04:39:11;10.67;;;5.93;;
18748;SDS011;9503;53.560;10.246;2023-11-18T04:41:42;12.87;;;6.73;;
18748;SDS011;9503;53.560;10.246;2023-11-18T04:44:08;12.47;;;7.00;;
18748;SDS011;9503;53.560;10.246;2023-11-18T04:46:35;13.23;;;6.47;;
18748;SDS011;9503;53.560;10.246;2023-11-18T04:49:02;11.07;;;5.53;;
18748;SDS011;9503;53.560;10.246;2023-11-18T04:51:28;10.73;;;6.53;;
18748;SDS011;9503;53.560;10.246;2023-11-18T04:53:55;11.83;;;6.87;;
18748;SDS011;9503;53.560;10.246;2023-11-18T04:56:21;12.30;;;7.00;;
18748;SDS011;9503;53.560;10.246;2023-11-18T04:58:49;12.50;;;6.77;;
18748;SDS011;9503;53.560;10.246;2023-11-18T05:01:16;9.80;;;5.67;;
18748;SDS011;9503;53.560;10.246;2023-11-18T05:03:43;11.37;;;6.23;;
18748;SDS011;9503;53.560;10.246;2023-11-18T05:06:09;11.67;;;6.43;;
18748;SDS011;9503;53.560;10.246;2023-11-18T05:08:36;13.67;;;6.27;;
18748;SDS011;9503;53.560;10.246;2023-11-18T05:11:03;13.47;;;6.80;;
18748;SDS011;9503;53.560;10.246;2023-11-18T05:13:30;9.57;;;5.87;;
18748;SDS011;9503;53.560;10.246;2023-11-18T05:15:59;11.77;;;5.87;;
18748;SDS011;9503;53.560;10.246;2023-11-18T05:18:25;11.17;;;5.63;;
18748;SDS011;9503;53.560;10.246;2023-11-18T05:20:54;11.97;;;6.47;;
18748;SDS011;9503;53.560;10.246;2023-11-18T05:23:22;10.87;;;5.90;;
18748;SDS011;9503;53.560;10.246;2023-11-18T05:25:49;11.40;;;6.43;;
18748;SDS011;9503;53.560;10.246;2023-11-18T05:28:15;10.40;;;6.23;;
18748;SDS011;9503;53.560;10.246;2023-11-18T05:30:42;11.30;;;6.20;;
18748;SDS011;9503;53.560;10.246;2023-11-18T05:33:10;10.80;;;6.10;;
18748;SDS011;9503;53.560;10.246;2023-11-18T05:35:42;9.67;;;5.60;;
18748;SDS011;9503;53.560;10.246;2023-11-18T05:38:13;11.07;;;6.33;;
18748;SDS011;9503;53.560;10.246;2023-11-18T05:40:41;12.70;;;6.23;;
18748;SDS011;9503;53.560;10.246;2023-11-18T05:43:14;9.57;;;5.53;;
18748;SDS011;9503;53.560;10.246;2023-11-18T05:45:44;11.33;;;5.83;;
18748;SDS011;9503;53.560;10.246;2023-11-18T05:48:33;12.67;;;5.87;;
18748;SDS011;9503;53.560;10.246;2023-11-18T05:51:00;10.33;;;6.30;;
18748;SDS011;9503;53.560;10.246;2023-11-18T05:53:26;11.43;;;6.07;;
18748;SDS011;9503;53.560;10.246;2023-11-18T05:55:54;10.00;;;6.07;;
18748;SDS011;9503;53.560;10.246;2023-11-18T05:58:20;11.33;;;6.13;;
18748;SDS011;9503;53.560;10.246;2023-11-18T06:00:47;10.07;;;6.23;;
18748;SDS011;9503;53.560;10.246;2023-11-18T06:03:14;11.57;;;5.63;;
18748;SDS011;9503;53.560;10.246;2023-11-18T06:05:43;12.80;;;6.40;;
18748;SDS011;9503;53.560;10.246;2023-11-18T06:08:10;10.40;;;6.03;;
18748;SDS011;9503;53.560;10.246;2023-11-18T06:10:37;14.63;;;6.37;;
18748;SDS011;9503;53.560;10.246;2023-11-18T06:13:04;11.90;;;5.93;;
18748;SDS011;9503;53.560;10.246;2023-11-18T06:15:31;11.83;;;5.90;;
18748;SDS011;9503;53.560;10.246;2023-11-18T06:17:58;11.83;;;6.13;;
18748;SDS011;9503;53.560;10.246;2023-11-18T06:20:24;13.90;;;6.57;;
18748;SDS011;9503;53.560;10.246;2023-11-18T06:22:52;12.87;;;6.80;;
18748;SDS011;9503;53.560;10.246;2023-11-18T06:25:19;14.63;;;6.73;;
18748;SDS011;9503;53.560;10.246;2023-11-18T06:27:45;15.33;;;7.37;;
18748;SDS011;9503;53.560;10.246;2023-11-18T06:30:12;12.50;;;7.10;;
18748;SDS011;9503;53.560;10.246;2023-11-18T06:32:40;14.63;;;7.23;;
18748;SDS011;9503;53.560;10.246;2023-11-18T06:35:07;16.93;;;7.27;;
18748;SDS011;9503;53.560;10.246;2023-11-18T06:37:34;15.60;;;7.47;;
18748;SDS011;9503;53.560;10.246;2023-11-18T06:40:03;13.73;;;7.23;;
18748;SDS011;9503;53.560;10.246;2023-11-18T06:42:41;14.40;;;7.30;;
18748;SDS011;9503;53.560;10.246;2023-11-18T06:45:08;15.17;;;7.97;;
18748;SDS011;9503;53.560;10.246;2023-11-18T06:47:35;16.10;;;7.50;;
18748;SDS011;9503;53.560;10.246;2023-11-18T06:50:03;13.43;;;8.20;;
18748;SDS011;9503;53.560;10.246;2023-11-18T06:52:30;15.83;;;8.03;;
18748;SDS011;9503;53.560;10.246;2023-11-18T06:54:57;18.10;;;8.20;;
18748;SDS011;9503;53.560;10.246;2023-11-18T06:57:25;16.63;;;7.80;;
18748;SDS011;9503;53.560;10.246;2023-11-18T06:59:52;17.70;;;9.17;;
18748;SDS011;9503;53.560;10.246;2023-11-18T07:02:18;19.47;;;9.60;;
18748;SDS011;9503;53.560;10.246;2023-11-18T07:04:46;17.03;;;10.30;;
18748;SDS011;9503;53.560;10.246;2023-11-18T07:07:12;21.90;;;11.13;;
18748;SDS011;9503;53.560;10.246;2023-11-18T07:09:39;19.40;;;9.13;;
18748;SDS011;9503;53.560;10.246;2023-11-18T07:12:06;16.97;;;8.63;;
18748;SDS011;9503;53.560;10.246;2023-11-18T07:14:34;16.60;;;8.97;;
18748;SDS011;9503;53.560;10.246;2023-11-18T07:17:01;16.83;;;8.57;;
18748;SDS011;9503;53.560;10.246;2023-11-18T07:19:29;16.23;;;8.67;;
18748;SDS011;9503;53.560;10.246;2023-11-18T07:21:58;16.10;;;8.87;;
18748;SDS011;9503;53.560;10.246;2023-11-18T07:24:25;13.77;;;8.00;;
18748;SDS011;9503;53.560;10.246;2023-11-18T07:26:52;20.57;;;9.27;;
18748;SDS011;9503;53.560;10.246;2023-11-18T07:29:19;17.07;;;8.60;;
18748;SDS011;9503;53.560;10.246;2023-11-18T07:31:49;21.13;;;10.90;;
18748;SDS011;9503;53.560;10.246;2023-11-18T07:34:16;17.37;;;9.30;;
18748;SDS011;9503;53.560;10.246;2023-11-18T07:36:42;20.07;;;9.73;;
18748;SDS011;9503;53.560;10.246;2023-11-18T07:39:11;19.77;;;10.17;;
18748;SDS011;9503;53.560;10.246;2023-11-18T07:41:40;19.10;;;9.00;;
18748;SDS011;9503;53.560;10.246;2023-11-18T07:44:07;21.80;;;9.93;;
18748;SDS011;9503;53.560;10.246;2023-11-18T07:46:35;17.03;;;9.47;;
18748;SDS011;9503;53.560;10.246;2023-11-18T07:49:04;18.97;;;10.17;;
18748;SDS011;9503;53.560;10.246;2023-11-18T07:51:31;17.33;;;9.10;;
18748;SDS011;9503;53.560;10.246;2023-11-18T07:53:58;18.97;;;9.63;;
18748;SDS011;9503;53.560;10.246;2023-11-18T07:56:25;19.53;;;9.77;;
18748;SDS011;9503;53.560;10.246;2023-11-18T07:58:52;22.63;;;9.90;;
18748;SDS011;9503;53.560;10.246;2023-11-18T08:01:19;16.97;;;8.97;;
18748;SDS011;9503;53.560;10.246;2023-11-18T08:03:46;18.67;;;9.43;;
18748;SDS011;9503;53.560;10.246;2023-11-18T08:06:15;20.27;;;9.97;;
18748;SDS011;9503;53.560;10.246;2023-11-18T08:08:42;18.73;;;9.03;;
18748;SDS011;9503;53.560;10.246;2023-11-18T08:11:10;15.90;;;8.40;;
18748;SDS011;9503;53.560;10.246;2023-11-18T08:13:37;18.13;;;8.70;;
18748;SDS011;9503;53.560;10.246;2023-11-18T08:16:04;17.63;;;8.80;;
18748;SDS011;9503;53.560;10.246;2023-11-18T08:18:32;20.07;;;9.27;;
18748;SDS011;9503;53.560;10.246;2023-11-18T08:20:59;15.90;;;8.83;;
18748;SDS011;9503;53.560;10.246;2023-11-18T08:23:28;16.57;;;9.00;;
18748;SDS011;9503;53.560;10.246;2023-11-18T08:25:55;17.30;;;8.33;;
18748;SDS011;9503;53.560;10.246;2023-11-18T08:28:22;18.53;;;8.90;;
18748;SDS011;9503;53.560;10.246;2023-11-18T08:30:48;17.23;;;8.00;;
18748;SDS011;9503;53.560;10.246;2023-11-18T08:33:16;17.80;;;8.70;;
18748;SDS011;9503;53.560;10.246;2023-11-18T08:35:43;18.30;;;8.33;;
18748;SDS011;9503;53.560;10.246;2023-11-18T08:38:10;15.77;;;7.87;;
18748;SDS011;9503;53.560;10.246;2023-11-18T08:40:38;15.80;;;7.73;;
18748;SDS011;9503;53.560;10.246;2023-11-18T08:43:07;15.37;;;7.57;;
18748;SDS011;9503;53.560;10.246;2023-11-18T08:45:34;16.30;;;8.00;;
18748;SDS011;9503;53.560;10.246;2023-11-18T08:48:03;16.23;;;7.70;;
18748;SDS011;9503;53.560;10.246;2023-11-18T08:50:32;15.73;;;7.80;;
18748;SDS011;9503;53.560;10.246;2023-11-18T08:52:58;12.53;;;7.17;;
18748;SDS011;9503;53.560;10.246;2023-11-18T08:55:29;14.33;;;7.10;;
18748;SDS011;9503;53.560;10.246;2023-11-18T08:58:06;16.10;;;7.43;;
18748;SDS011;9503;53.560;10.246;2023-11-18T09:00:44;11.57;;;5.97;;
18748;SDS011;9503;53.560;10.246;2023-11-18T09:03:19;14.03;;;7.17;;
18748;SDS011;9503;53.560;10.246;2023-11-18T09:05:54;11.80;;;6.10;;
18748;SDS011;9503;53.560;10.246;2023-11-18T09:08:29;13.60;;;6.37;;
18748;SDS011;9503;53.560;10.246;2023-11-18T09:10:57;9.63;;;5.30;;
18748;SDS011;9503;53.560;10.246;2023-11-18T09:13:26;10.47;;;5.20;;
18748;SDS011;9503;53.560;10.246;2023-11-18T09:15:54;9.27;;;5.33;;
18748;SDS011;9503;53.560;10.246;2023-11-18T09:18:22;10.27;;;5.73;;
18748;SDS011;9503;53.560;10.246;2023-11-18T09:20:50;9.63;;;5.33;;
18748;SDS011;9503;53.560;10.246;2023-11-18T09:23:17;8.50;;;4.93;;
18748;SDS011;9503;53.560;10.246;2023-11-18T09:25:45;7.37;;;4.60;;
18748;SDS011;9503;53.560;10.246;2023-11-18T09:28:12;8.17;;;4.53;;
18748;SDS011;9503;53.560;10.246;2023-11-18T09:30:42;5.63;;;4.10;;
18748;SDS011;9503;53.560;10.246;2023-11-18T09:33:18;6.33;;;3.90;;
18748;SDS011;9503;53.560;10.246;2023-11-18T09:35:53;7.47;;;4.50;;
18748;SDS011;9503;53.560;10.246;2023-11-18T09:38:24;6.30;;;3.90;;
18748;SDS011;9503;53.560;10.246;2023-11-18T09:40:53;7.00;;;4.13;;
18748;SDS011;9503;53.560;10.246;2023-11-18T09:43:20;6.70;;;4.27;;
18748;SDS011;9503;53.560;10.246;2023-11-18T09:45:51;8.57;;;4.53;;
18748;SDS011;9503;53.560;10.246;2023-11-18T09:48:21;6.93;;;4.10;;
18748;SDS011;9503;53.560;10.246;2023-11-18T09:50:51;6.87;;;4.13;;
18748;SDS011;9503;53.560;10.246;2023-11-18T09:53:19;6.97;;;3.70;;
18748;SDS011;9503;53.560;10.246;2023-11-18T09:55:52;7.23;;;3.93;;
18748;SDS011;9503;53.560;10.246;2023-11-18T09:58:25;6.50;;;3.77;;
18748;SDS011;9503;53.560;10.246;2023-11-18T10:01:02;7.30;;;4.07;;
18748;SDS011;9503;53.560;10.246;2023-11-18T10:03:29;5.70;;;3.60;;
18748;SDS011;9503;53.560;10.246;2023-11-18T10:05:56;3.83;;;2.80;;
18748;SDS011;9503;53.560;10.246;2023-11-18T10:08:30;4.30;;;3.20;;
18748;SDS011;9503;53.560;10.246;2023-11-18T10:10:57;3.30;;;2.67;;
18748;SDS011;9503;53.560;10.246;2023-11-18T10:13:33;3.93;;;2.87;;
18748;SDS011;9503;53.560;10.246;2023-11-18T10:16:07;7.80;;;5.60;;
18748;SDS011;9503;53.560;10.246;2023-11-18T10:18:34;3.60;;;2.73;;
18748;SDS011;9503;53.560;10.246;2023-11-18T10:21:01;3.13;;;2.30;;
18748;SDS011;9503;53.560;10.246;2023-11-18T10:23:33;5.10;;;2.80;;
18748;SDS011;9503;53.560;10.246;2023-11-18T10:26:02;3.60;;;2.67;;
18748;SDS011;9503;53.560;10.246;2023-11-18T10:28:30;3.33;;;2.20;;
18748;SDS011;9503;53.560;10.246;2023-11-18T10:30:58;3.40;;;2.77;;
18748;SDS011;9503;53.560;10.246;2023-11-18T10:33:30;4.17;;;2.90;;
18748;SDS011;9503;53.560;10.246;2023-11-18T10:35:58;4.87;;;3.80;;
18748;SDS011;9503;53.560;10.246;2023-11-18T10:38:28;4.13;;;2.47;;
18748;SDS011;9503;53.560;10.246;2023-11-18T10:40:56;2.40;;;1.70;;
18748;SDS011;9503;53.560;10.246;2023-11-18T10:43:25;2.23;;;1.80;;
18748;SDS011;9503;53.560;10.246;2023-11-18T10:45:54;3.13;;;2.10;;
18748;SDS011;9503;53.560;10.246;2023-11-18T10:48:37;3.03;;;2.40;;
18748;SDS011;9503;53.560;10.246;2023-11-18T10:51:07;2.17;;;1.80;;
18748;SDS011;9503;53.560;10.246;2023-11-18T10:53:37;2.47;;;2.00;;
18748;SDS011;9503;53.560;10.246;2023-11-18T10:56:04;3.27;;;2.20;;
18748;SDS011;9503;53.560;10.246;2023-11-18T10:58:35;3.83;;;2.80;;
18748;SDS011;9503;53.560;10.246;2023-11-18T11:01:02;3.83;;;2.70;;
18748;SDS011;9503;53.560;10.246;2023-11-18T11:03:30;2.80;;;2.60;;
18748;SDS011;9503;53.560;10.246;2023-11-18T11:06:02;2.57;;;2.37;;
18748;SDS011;9503;53.560;10.246;2023-11-18T11:08:43;3.73;;;2.50;;
18748;SDS011;9503;53.560;10.246;2023-11-18T11:11:09;3.93;;;2.23;;
18748;SDS011;9503;53.560;10.246;2023-11-18T11:13:41;2.97;;;2.33;;
18748;SDS011;9503;53.560;10.246;2023-11-18T11:16:10;3.17;;;2.47;;
18748;SDS011;9503;53.560;10.246;2023-11-18T11:18:45;4.50;;;2.40;;
18748;SDS011;9503;53.560;10.246;2023-11-18T11:21:20;2.50;;;2.17;;
18748;SDS011;9503;53.560;10.246;2023-11-18T11:23:53;2.40;;;2.20;;
18748;SDS011;9503;53.560;10.246;2023-11-18T11:26:34;4.30;;;3.00;;
18748;SDS011;9503;53.560;10.246;2023-11-18T11:29:11;3.93;;;2.80;;
18748;SDS011;9503;53.560;10.246;2023-11-18T11:31:53;2.60;;;2.27;;
18748;SDS011;9503;53.560;10.246;2023-11-18T11:34:37;4.03;;;2.20;;
18748;SDS011;9503;53.560;10.246;2023-11-18T11:37:09;2.30;;;2.07;;
18748;SDS011;9503;53.560;10.246;2023-11-18T11:39:40;2.83;;;1.80;;
18748;SDS011;9503;53.560;10.246;2023-11-18T11:42:11;2.73;;;2.20;;
18748;SDS011;9503;53.560;10.246;2023-11-18T11:44:42;4.73;;;2.20;;
18748;SDS011;9503;53.560;10.246;2023-11-18T11:47:10;3.83;;;2.20;;
18748;SDS011;9503;53.560;10.246;2023-11-18T11:49:41;3.37;;;1.90;;
18748;SDS011;9503;53.560;10.246;2023-11-18T11:52:23;2.13;;;1.93;;
18748;SDS011;9503;53.560;10.246;2023-11-18T11:54:55;2.20;;;2.00;;
18748;SDS011;9503;53.560;10.246;2023-11-18T11:57:28;1.97;;;1.80;;
18748;SDS011;9503;53.560;10.246;2023-11-18T11:59:55;4.00;;;1.73;;
18748;SDS011;9503;53.560;10.246;2023-11-18T12:02:23;1.80;;;1.60;;
18748;SDS011;9503;53.560;10.246;2023-11-18T12:04:54;2.20;;;2.00;;
18748;SDS011;9503;53.560;10.246;2023-11-18T12:07:25;2.50;;;1.77;;
18748;SDS011;9503;53.560;10.246;2023-11-18T12:09:56;2.80;;;2.10;;
18748;SDS011;9503;53.560;10.246;2023-11-18T12:12:24;3.80;;;2.60;;
18748;SDS011;9503;53.560;10.246;2023-11-18T12:14:52;5.00;;;2.33;;
18748;SDS011;9503;53.560;10.246;2023-11-18T12:17:25;2.83;;;2.10;;
18748;SDS011;9503;53.560;10.246;2023-11-18T12:19:57;2.80;;;2.10;;
18748;SDS011;9503;53.560;10.246;2023-11-18T12:22:26;6.20;;;2.70;;
18748;SDS011;9503;53.560;10.246;2023-11-18T12:27:57;3.17;;;2.60;;
18748;SDS011;9503;53.560;10.246;2023-11-18T12:30:39;3.33;;;2.77;;
18748;SDS011;9503;53.560;10.246;2023-11-18T12:33:17;3.37;;;2.70;;
18748;SDS011;9503;53.560;10.246;2023-11-18T12:35:57;3.27;;;2.43;;
18748;SDS011;9503;53.560;10.246;2023-11-18T12:42:02;3.87;;;2.50;;
18748;SDS011;9503;53.560;10.246;2023-11-18T12:44:35;2.57;;;2.23;;
18748;SDS011;9503;53.560;10.246;2023-11-18T12:47:05;2.30;;;2.10;;
18748;SDS011;9503;53.560;10.246;2023-11-18T12:49:39;2.40;;;2.10;;
18748;SDS011;9503;53.560;10.246;2023-11-18T12:52:07;3.63;;;2.40;;
18748;SDS011;9503;53.560;10.246;2023-11-18T12:54:35;2.63;;;2.00;;
18748;SDS011;9503;53.560;10.246;2023-11-18T12:57:06;3.53;;;2.57;;
18748;SDS011;9503;53.560;10.246;2023-11-18T12:59:32;2.73;;;2.33;;
18748;SDS011;9503;53.560;10.246;2023-11-18T13:01:59;6.27;;;2.73;;
18748;SDS011;9503;53.560;10.246;2023-11-18T13:04:29;3.17;;;2.60;;
18748;SDS011;9503;53.560;10.246;2023-11-18T13:06:55;3.23;;;2.43;;
18748;SDS011;9503;53.560;10.246;2023-11-18T13:09:23;2.77;;;2.20;;
18748;SDS011;9503;53.560;10.246;2023-11-18T13:11:53;2.97;;;2.10;;
18748;SDS011;9503;53.560;10.246;2023-11-18T13:14:24;4.50;;;2.33;;
18748;SDS011;9503;53.560;10.246;2023-11-18T13:16:52;4.87;;;2.30;;
18748;SDS011;9503;53.560;10.246;2023-11-18T13:19:25;2.23;;;2.03;;
18748;SDS011;9503;53.560;10.246;2023-11-18T13:21:56;4.57;;;2.63;;
18748;SDS011;9503;53.560;10.246;2023-11-18T13:24:24;3.03;;;2.37;;
18748;SDS011;9503;53.560;10.246;2023-11-18T13:26:51;3.00;;;2.17;;
18748;SDS011;9503;53.560;10.246;2023-11-18T13:29:20;3.03;;;2.27;;
18748;SDS011;9503;53.560;10.246;2023-11-18T13:31:49;3.10;;;2.50;;
18748;SDS011;9503;53.560;10.246;2023-11-18T13:34:17;2.90;;;2.23;;
18748;SDS011;9503;53.560;10.246;2023-11-18T13:36:45;3.70;;;2.53;;
18748;SDS011;9503;53.560;10.246;2023-11-18T13:39:15;3.20;;;2.60;;
18748;SDS011;9503;53.560;10.246;2023-11-18T13:41:42;3.63;;;2.40;;
18748;SDS011;9503;53.560;10.246;2023-11-18T13:44:10;3.33;;;2.40;;
18748;SDS011;9503;53.560;10.246;2023-11-18T13:46:37;3.37;;;2.37;;
18748;SDS011;9503;53.560;10.246;2023-11-18T13:49:06;2.37;;;2.17;;
18748;SDS011;9503;53.560;10.246;2023-11-18T13:51:33;3.03;;;2.47;;
18748;SDS011;9503;53.560;10.246;2023-11-18T13:54:01;3.93;;;2.33;;
18748;SDS011;9503;53.560;10.246;2023-11-18T13:56:29;2.73;;;2.53;;
18748;SDS011;9503;53.560;10.246;2023-11-18T13:58:57;4.33;;;2.63;;
18748;SDS011;9503;53.560;10.246;2023-11-18T14:01:24;4.47;;;2.90;;
18748;SDS011;9503;53.560;10.246;2023-11-18T14:03:53;4.40;;;2.27;;
18748;SDS011;9503;53.560;10.246;2023-11-18T14:06:21;5.60;;;2.57;;
18748;SDS011;9503;53.560;10.246;2023-11-18T14:08:48;2.63;;;2.40;;
18748;SDS011;9503;53.560;10.246;2023-11-18T14:11:15;4.37;;;2.50;;
18748;SDS011;9503;53.560;10.246;2023-11-18T14:13:42;2.40;;;2.20;;
18748;SDS011;9503;53.560;10.246;2023-11-18T14:16:09;6.03;;;3.57;;
18748;SDS011;9503;53.560;10.246;2023-11-18T14:18:37;2.97;;;2.40;;
18748;SDS011;9503;53.560;10.246;2023-11-18T14:21:06;2.40;;;2.17;;
18748;SDS011;9503;53.560;10.246;2023-11-18T14:23:34;2.50;;;2.10;;
18748;SDS011;9503;53.560;10.246;2023-11-18T14:26:02;4.47;;;2.20;;
18748;SDS011;9503;53.560;10.246;2023-11-18T14:28:29;3.27;;;2.73;;
18748;SDS011;9503;53.560;10.246;2023-11-18T14:30:56;4.20;;;2.80;;
18748;SDS011;9503;53.560;10.246;2023-11-18T14:33:23;3.77;;;2.70;;
18748;SDS011;9503;53.560;10.246;2023-11-18T14:35:49;4.30;;;3.40;;
18748;SDS011;9503;53.560;10.246;2023-11-18T14:38:16;3.20;;;2.90;;
18748;SDS011;9503;53.560;10.246;2023-11-18T14:40:46;2.90;;;2.27;;
18748;SDS011;9503;53.560;10.246;2023-11-18T14:43:14;4.30;;;2.90;;
18748;SDS011;9503;53.560;10.246;2023-11-18T14:45:41;3.53;;;2.73;;
18748;SDS011;9503;53.560;10.246;2023-11-18T14:48:08;4.43;;;2.90;;
18748;SDS011;9503;53.560;10.246;2023-11-18T14:50:35;3.50;;;3.00;;
18748;SDS011;9503;53.560;10.246;2023-11-18T14:53:01;4.37;;;3.33;;
18748;SDS011;9503;53.560;10.246;2023-11-18T14:55:28;3.43;;;2.60;;